sensor_id;sensor_type;location;lat;lon;timestamp;pressure;altitude;pressure_sealevel;temperature;humidity
37202;BME280;37799;52.390;6.136;2023-04-02T00:04:23;101243.31;;;5.90;100.00
37202;BME280;37799;52.390;6.136;2023-04-02T00:07:17;101250.16;;;5.93;100.00
37202;BME280;37799;52.390;6.136;2023-04-02T00:09:42;101260.41;;;5.87;100.00
37202;BME280;37799;52.390;6.136;2023-04-02T00:12:19;101261.28;;;5.87;100.00
37202;BME280;37799;52.390;6.136;2023-04-02T00:14:51;101261.25;;;5.89;100.00
37202;BME280;37799;52.390;6.136;2023-04-02T00:17:23;101261.25;;;5.71;100.00
37202;BME280;37799;52.390;6.136;2023-04-02T00:19:57;101269.81;;;5.77;100.00
37202;BME280;37799;52.390;6.136;2023-04-02T00:22:30;101270.69;;;5.73;100.00
37202;BME280;37799;52.390;6.136;2023-04-02T00:25:06;101282.66;;;5.70;100.00
37202;BME280;37799;52.390;6.136;2023-04-02T00:27:45;101284.38;;;5.75;100.00
37202;BME280;37799;52.390;6.136;2023-04-02T00:30:32;101283.53;;;5.81;100.00
37202;BME280;37799;52.390;6.136;2023-04-02T00:32:58;101286.09;;;5.78;100.00
37202;BME280;37799;52.390;6.136;2023-04-02T00:35:30;101297.22;;;5.77;100.00
37202;BME280;37799;52.390;6.136;2023-04-02T00:38:05;101300.63;;;5.65;100.00
37202;BME280;37799;52.390;6.136;2023-04-02T00:40:32;101311.78;;;5.61;100.00
37202;BME280;37799;52.390;6.136;2023-04-02T00:43:24;101306.59;;;5.58;100.00
37202;BME280;37799;52.390;6.136;2023-04-02T00:46:01;101315.19;;;5.66;100.00
37202;BME280;37799;52.390;6.136;2023-04-02T00:48:36;101316.06;;;5.63;100.00
37202;BME280;37799;52.390;6.136;2023-04-02T00:51:13;101324.59;;;5.53;100.00
37202;BME280;37799;52.390;6.136;2023-04-02T00:53:44;101329.69;;;5.38;100.00
37202;BME280;37799;52.390;6.136;2023-04-02T00:56:30;101325.38;;;5.32;100.00
37202;BME280;37799;52.390;6.136;2023-04-02T00:59:30;101333.97;;;5.41;100.00
37202;BME280;37799;52.390;6.136;2023-04-02T01:02:30;101335.69;;;5.39;100.00
37202;BME280;37799;52.390;6.136;2023-04-02T01:05:21;101339.09;;;5.38;100.00
37202;BME280;37799;52.390;6.136;2023-04-02T01:08:05;101351.09;;;5.40;100.00
37202;BME280;37799;52.390;6.136;2023-04-02T01:10:49;101346.81;;;5.38;100.00
37202;BME280;37799;52.390;6.136;2023-04-02T01:16:20;101351.94;;;5.38;100.00
37202;BME280;37799;52.390;6.136;2023-04-02T01:23:13;101368.22;;;5.46;100.00
37202;BME280;37799;52.390;6.136;2023-04-02T01:26:14;101364.78;;;5.39;100.00
37202;BME280;37799;52.390;6.136;2023-04-02T01:29:19;101374.19;;;5.37;100.00
37202;BME280;37799;52.390;6.136;2023-04-02T01:31:52;101380.19;;;5.38;100.00
37202;BME280;37799;52.390;6.136;2023-04-02T01:34:26;101384.47;;;5.36;100.00
37202;BME280;37799;52.390;6.136;2023-04-02T01:40:30;101405.81;;;5.25;100.00
37202;BME280;37799;52.390;6.136;2023-04-02T01:43:41;101410.88;;;5.13;100.00
37202;BME280;37799;52.390;6.136;2023-04-02T01:46:27;101415.09;;;5.02;100.00
37202;BME280;37799;52.390;6.136;2023-04-02T01:49:03;101415.91;;;4.95;100.00
37202;BME280;37799;52.390;6.136;2023-04-02T01:51:51;101420.19;;;4.96;100.00
37202;BME280;37799;52.390;6.136;2023-04-02T01:54:30;101426.22;;;5.01;100.00
37202;BME280;37799;52.390;6.136;2023-04-02T01:56:56;101434.75;;;5.00;100.00
37202;BME280;37799;52.390;6.136;2023-04-02T01:59:27;101437.22;;;4.85;100.00
37202;BME280;37799;52.390;6.136;2023-04-02T02:02:04;101439.81;;;4.86;100.00
37202;BME280;37799;52.390;6.136;2023-04-02T02:04:32;101451.78;;;4.89;100.00
37202;BME280;37799;52.390;6.136;2023-04-02T02:07:30;101453.50;;;4.85;100.00
37202;BME280;37799;52.390;6.136;2023-04-02T02:10:01;101453.41;;;4.78;100.00
37202;BME280;37799;52.390;6.136;2023-04-02T02:12:48;101458.53;;;4.78;100.00
37202;BME280;37799;52.390;6.136;2023-04-02T02:15:30;101465.50;;;4.91;100.00
37202;BME280;37799;52.390;6.136;2023-04-02T02:18:18;101463.75;;;4.84;100.00
37202;BME280;37799;52.390;6.136;2023-04-02T02:20:53;101470.72;;;5.03;100.00
37202;BME280;37799;52.390;6.136;2023-04-02T02:23:50;101483.53;;;5.01;100.00
37202;BME280;37799;52.390;6.136;2023-04-02T02:26:16;101485.06;;;4.80;100.00
37202;BME280;37799;52.390;6.136;2023-04-02T02:28:48;101494.44;;;4.73;100.00
37202;BME280;37799;52.390;6.136;2023-04-02T02:31:23;101501.09;;;4.54;100.00
37202;BME280;37799;52.390;6.136;2023-04-02T02:34:07;101503.59;;;4.45;100.00
37202;BME280;37799;52.390;6.136;2023-04-02T02:37:21;101511.13;;;4.30;100.00
37202;BME280;37799;52.390;6.136;2023-04-02T02:40:17;101514.78;;;4.55;100.00
37202;BME280;37799;52.390;6.136;2023-04-02T02:42:58;101519.00;;;4.50;100.00
37202;BME280;37799;52.390;6.136;2023-04-02T02:45:44;101519.75;;;4.38;100.00
37202;BME280;37799;52.390;6.136;2023-04-02T02:48:18;101526.44;;;4.25;100.00
37202;BME280;37799;52.390;6.136;2023-04-02T02:50:58;101535.78;;;4.19;100.00
37202;BME280;37799;52.390;6.136;2023-04-02T02:53:47;101530.69;;;4.22;100.00
37202;BME280;37799;52.390;6.136;2023-04-02T02:56:23;101550.41;;;4.29;100.00
37202;BME280;37799;52.390;6.136;2023-04-02T02:58:57;101552.09;;;4.27;100.00
37202;BME280;37799;52.390;6.136;2023-04-02T03:01:30;101551.06;;;4.12;100.00
37202;BME280;37799;52.390;6.136;2023-04-02T03:04:34;101559.59;;;4.10;100.00
37202;BME280;37799;52.390;6.136;2023-04-02T03:07:16;101560.44;;;4.07;100.00
37202;BME280;37799;52.390;6.136;2023-04-02T03:10:47;101573.41;;;4.20;100.00
37202;BME280;37799;52.390;6.136;2023-04-02T03:14:21;101575.03;;;4.16;100.00
37202;BME280;37799;52.390;6.136;2023-04-02T03:16:59;101575.81;;;4.07;100.00
37202;BME280;37799;52.390;6.136;2023-04-02T03:19:49;101591.94;;;4.00;100.00
37202;BME280;37799;52.390;6.136;2023-04-02T03:22:36;101592.81;;;4.02;100.00
37202;BME280;37799;52.390;6.136;2023-04-02T03:25:40;101599.38;;;3.82;100.00
37202;BME280;37799;52.390;6.136;2023-04-02T03:28:38;101610.50;;;3.82;100.00
37202;BME280;37799;52.390;6.136;2023-04-02T03:31:12;101618.00;;;3.70;100.00
37202;BME280;37799;52.390;6.136;2023-04-02T03:34:04;101623.97;;;3.69;100.00
37202;BME280;37799;52.390;6.136;2023-04-02T03:37:17;101630.81;;;3.70;100.00
37202;BME280;37799;52.390;6.136;2023-04-02T03:43:44;101650.28;;;3.61;100.00
37202;BME280;37799;52.390;6.136;2023-04-02T03:46:43;101650.31;;;3.64;100.00
37202;BME280;37799;52.390;6.136;2023-04-02T03:49:57;101656.16;;;3.53;100.00
37202;BME280;37799;52.390;6.136;2023-04-02T03:52:35;101667.28;;;3.55;100.00
37202;BME280;37799;52.390;6.136;2023-04-02T03:55:26;101667.03;;;3.40;100.00
37202;BME280;37799;52.390;6.136;2023-04-02T03:58:15;101675.69;;;3.47;100.00
37202;BME280;37799;52.390;6.136;2023-04-02T04:04:56;101687.22;;;3.23;100.00
37202;BME280;37799;52.390;6.136;2023-04-02T04:07:45;101692.31;;;3.22;100.00
37202;BME280;37799;52.390;6.136;2023-04-02T04:10:43;101695.69;;;3.21;100.00
37202;BME280;37799;52.390;6.136;2023-04-02T04:13:30;101724.19;;;2.92;100.00
37202;BME280;37799;52.390;6.136;2023-04-02T04:16:46;101722.41;;;2.88;100.00
37202;BME280;37799;52.390;6.136;2023-04-02T04:19:56;101740.50;;;2.57;100.00
37202;BME280;37799;52.390;6.136;2023-04-02T04:22:41;101744.63;;;2.50;100.00
37202;BME280;37799;52.390;6.136;2023-04-02T04:25:31;101741.22;;;2.50;100.00
37202;BME280;37799;52.390;6.136;2023-04-02T04:31:50;101750.44;;;2.45;100.00
37202;BME280;37799;52.390;6.136;2023-04-02T04:34:38;101756.25;;;2.36;100.00
37202;BME280;37799;52.390;6.136;2023-04-02T04:37:31;101761.72;;;2.15;100.00
37202;BME280;37799;52.390;6.136;2023-04-02T04:40:19;101763.63;;;2.24;100.00
37202;BME280;37799;52.390;6.136;2023-04-02T04:42:57;101773.06;;;2.26;100.00
37202;BME280;37799;52.390;6.136;2023-04-02T04:46:01;101774.38;;;2.09;100.00
37202;BME280;37799;52.390;6.136;2023-04-02T04:52:18;101789.34;;;2.31;100.00
37202;BME280;37799;52.390;6.136;2023-04-02T04:55:00;101789.44;;;2.34;100.00
37202;BME280;37799;52.390;6.136;2023-04-02T04:57:47;101799.50;;;2.28;100.00
37202;BME280;37799;52.390;6.136;2023-04-02T05:03:49;101818.81;;;2.17;100.00
37202;BME280;37799;52.390;6.136;2023-04-02T05:07:08;101824.97;;;2.24;100.00
37202;BME280;37799;52.390;6.136;2023-04-02T05:12:56;101836.84;;;2.22;100.00
37202;BME280;37799;52.390;6.136;2023-04-02T05:16:27;101853.38;;;2.36;100.00
37202;BME280;37799;52.390;6.136;2023-04-02T05:19:24;101854.97;;;2.32;100.00
37202;BME280;37799;52.390;6.136;2023-04-02T05:23:29;101871.09;;;2.30;100.00
37202;BME280;37799;52.390;6.136;2023-04-02T05:26:49;101875.88;;;2.16;100.00
37202;BME280;37799;52.390;6.136;2023-04-02T05:33:48;101895.66;;;2.23;100.00
37202;BME280;37799;52.390;6.136;2023-04-02T05:36:26;101906.28;;;2.40;100.00
37202;BME280;37799;52.390;6.136;2023-04-02T05:39:10;101909.38;;;2.27;100.00
37202;BME280;37799;52.390;6.136;2023-04-02T05:41:41;101929.75;;;2.24;100.00
37202;BME280;37799;52.390;6.136;2023-04-02T05:44:17;101928.88;;;2.23;100.00
37202;BME280;37799;52.390;6.136;2023-04-02T05:47:19;101920.47;;;2.27;100.00
37202;BME280;37799;52.390;6.136;2023-04-02T05:50:12;101939.94;;;2.22;100.00
37202;BME280;37799;52.390;6.136;2023-04-02T05:52:46;101943.13;;;2.15;100.00
37202;BME280;37799;52.390;6.136;2023-04-02T05:55:35;101948.09;;;2.09;100.00
37202;BME280;37799;52.390;6.136;2023-04-02T05:58:10;101965.28;;;2.15;100.00
37202;BME280;37799;52.390;6.136;2023-04-02T06:03:10;101964.69;;;2.25;100.00
37202;BME280;37799;52.390;6.136;2023-04-02T06:05:41;101969.03;;;2.29;100.00
37202;BME280;37799;52.390;6.136;2023-04-02T06:08:18;101967.66;;;2.42;100.00
37202;BME280;37799;52.390;6.136;2023-04-02T06:11:06;101979.16;;;2.24;100.00
37202;BME280;37799;52.390;6.136;2023-04-02T06:13:34;101994.03;;;2.39;100.00
37202;BME280;37799;52.390;6.136;2023-04-02T06:16:00;101994.56;;;2.27;100.00
37202;BME280;37799;52.390;6.136;2023-04-02T06:18:28;102008.22;;;2.28;100.00
37202;BME280;37799;52.390;6.136;2023-04-02T06:20:55;102010.81;;;2.29;100.00
37202;BME280;37799;52.390;6.136;2023-04-02T06:23:44;102014.41;;;2.36;100.00
37202;BME280;37799;52.390;6.136;2023-04-02T06:26:38;102020.16;;;2.29;100.00
37202;BME280;37799;52.390;6.136;2023-04-02T06:29:25;102022.75;;;2.30;100.00
37202;BME280;37799;52.390;6.136;2023-04-02T06:32:23;102029.25;;;2.19;100.00
37202;BME280;37799;52.390;6.136;2023-04-02T06:35:00;102025.31;;;2.30;100.00
37202;BME280;37799;52.390;6.136;2023-04-02T06:37:44;102041.47;;;2.29;100.00
37202;BME280;37799;52.390;6.136;2023-04-02T06:43:30;102048.63;;;2.41;100.00
37202;BME280;37799;52.390;6.136;2023-04-02T06:46:00;102058.31;;;2.53;100.00
37202;BME280;37799;52.390;6.136;2023-04-02T06:48:29;102048.75;;;2.47;100.00
37202;BME280;37799;52.390;6.136;2023-04-02T06:51:09;102052.09;;;2.45;100.00
37202;BME280;37799;52.390;6.136;2023-04-02T06:53:43;102057.31;;;2.48;100.00
37202;BME280;37799;52.390;6.136;2023-04-02T06:56:35;102073.47;;;2.47;100.00
37202;BME280;37799;52.390;6.136;2023-04-02T06:59:13;102075.00;;;2.40;100.00
37202;BME280;37799;52.390;6.136;2023-04-02T07:01:44;102087.56;;;2.32;100.00
37202;BME280;37799;52.390;6.136;2023-04-02T07:04:12;102097.97;;;2.39;100.00
37202;BME280;37799;52.390;6.136;2023-04-02T07:06:42;102092.94;;;2.42;100.00
37202;BME280;37799;52.390;6.136;2023-04-02T07:09:08;102101.59;;;2.47;100.00
37202;BME280;37799;52.390;6.136;2023-04-02T07:11:37;102104.34;;;2.54;100.00
37202;BME280;37799;52.390;6.136;2023-04-02T07:14:04;102112.72;;;2.80;100.00
37202;BME280;37799;52.390;6.136;2023-04-02T07:16:31;102119.31;;;2.72;100.00
37202;BME280;37799;52.390;6.136;2023-04-02T07:19:03;102123.75;;;2.78;100.00
37202;BME280;37799;52.390;6.136;2023-04-02T07:21:32;102125.75;;;2.89;100.00
37202;BME280;37799;52.390;6.136;2023-04-02T07:24:01;102134.84;;;2.78;100.00
37202;BME280;37799;52.390;6.136;2023-04-02T07:26:27;102132.41;;;2.83;100.00
37202;BME280;37799;52.390;6.136;2023-04-02T07:28:54;102147.88;;;2.87;100.00
37202;BME280;37799;52.390;6.136;2023-04-02T07:31:25;102150.31;;;2.83;100.00
37202;BME280;37799;52.390;6.136;2023-04-02T07:33:53;102151.06;;;2.79;100.00
37202;BME280;37799;52.390;6.136;2023-04-02T07:36:21;102164.16;;;2.89;100.00
37202;BME280;37799;52.390;6.136;2023-04-02T07:38:47;102168.88;;;3.07;100.00
37202;BME280;37799;52.390;6.136;2023-04-02T07:41:13;102166.06;;;2.98;100.00
37202;BME280;37799;52.390;6.136;2023-04-02T07:43:40;102174.56;;;2.97;100.00
37202;BME280;37799;52.390;6.136;2023-04-02T07:46:06;102179.13;;;2.76;100.00
37202;BME280;37799;52.390;6.136;2023-04-02T07:48:32;102180.97;;;2.81;100.00
37202;BME280;37799;52.390;6.136;2023-04-02T07:50:58;102182.69;;;2.82;100.00
37202;BME280;37799;52.390;6.136;2023-04-02T07:53:29;102184.09;;;2.71;100.00
37202;BME280;37799;52.390;6.136;2023-04-02T07:55:56;102190.00;;;2.69;100.00
37202;BME280;37799;52.390;6.136;2023-04-02T07:58:22;102182.25;;;2.97;100.00
37202;BME280;37799;52.390;6.136;2023-04-02T08:00:47;102191.72;;;3.00;100.00
37202;BME280;37799;52.390;6.136;2023-04-02T08:03:12;102193.84;;;3.16;100.00
37202;BME280;37799;52.390;6.136;2023-04-02T08:05:38;102202.03;;;3.36;100.00
37202;BME280;37799;52.390;6.136;2023-04-02T08:08:04;102207.72;;;3.59;100.00
37202;BME280;37799;52.390;6.136;2023-04-02T08:10:29;102208.63;;;3.61;100.00
37202;BME280;37799;52.390;6.136;2023-04-02T08:12:55;102222.44;;;3.66;100.00
37202;BME280;37799;52.390;6.136;2023-04-02T08:15:21;102216.56;;;3.71;100.00
37202;BME280;37799;52.390;6.136;2023-04-02T08:17:47;102221.47;;;3.98;100.00
37202;BME280;37799;52.390;6.136;2023-04-02T08:20:20;102215.41;;;4.31;100.00
37202;BME280;37799;52.390;6.136;2023-04-02T08:22:50;102220.69;;;4.81;100.00
37202;BME280;37799;52.390;6.136;2023-04-02T08:25:16;102232.56;;;5.19;100.00
37202;BME280;37799;52.390;6.136;2023-04-02T08:27:45;102243.75;;;5.71;100.00
37202;BME280;37799;52.390;6.136;2023-04-02T08:30:12;102245.41;;;6.22;100.00
37202;BME280;37799;52.390;6.136;2023-04-02T08:32:38;102265.34;;;6.35;100.00
37202;BME280;37799;52.390;6.136;2023-04-02T08:35:06;102280.31;;;6.05;100.00
37202;BME280;37799;52.390;6.136;2023-04-02T08:37:32;102284.81;;;5.68;100.00
37202;BME280;37799;52.390;6.136;2023-04-02T08:39:58;102280.84;;;5.37;100.00
37202;BME280;37799;52.390;6.136;2023-04-02T08:42:45;102286.34;;;5.12;100.00
37202;BME280;37799;52.390;6.136;2023-04-02T08:45:41;102283.38;;;5.34;100.00
37202;BME280;37799;52.390;6.136;2023-04-02T08:48:13;102293.75;;;5.40;100.00
37202;BME280;37799;52.390;6.136;2023-04-02T08:50:41;102293.75;;;5.88;100.00
37202;BME280;37799;52.390;6.136;2023-04-02T08:55:46;102298.88;;;5.88;100.00
37202;BME280;37799;52.390;6.136;2023-04-02T09:00:58;102306.00;;;5.10;100.00
37202;BME280;37799;52.390;6.136;2023-04-02T09:03:40;102310.94;;;4.60;100.00
37202;BME280;37799;52.390;6.136;2023-04-02T09:06:09;102314.25;;;4.95;100.00
37202;BME280;37799;52.390;6.136;2023-04-02T09:08:38;102316.94;;;5.45;100.00
37202;BME280;37799;52.390;6.136;2023-04-02T09:11:12;102333.56;;;6.12;100.00
37202;BME280;37799;52.390;6.136;2023-04-02T09:13:44;102326.19;;;6.92;100.00
37202;BME280;37799;52.390;6.136;2023-04-02T09:16:16;102332.75;;;7.38;100.00
37202;BME280;37799;52.390;6.136;2023-04-02T09:18:43;102339.91;;;7.67;100.00
37202;BME280;37799;52.390;6.136;2023-04-02T09:21:33;102346.06;;;7.80;100.00
37202;BME280;37799;52.390;6.136;2023-04-02T09:23:59;102356.22;;;7.64;100.00
37202;BME280;37799;52.390;6.136;2023-04-02T09:26:27;102361.28;;;7.55;100.00
37202;BME280;37799;52.390;6.136;2023-04-02T09:29:25;102365.81;;;7.81;100.00
37202;BME280;37799;52.390;6.136;2023-04-02T09:34:30;102374.53;;;7.92;100.00
37202;BME280;37799;52.390;6.136;2023-04-02T09:36:56;102379.56;;;7.78;100.00
37202;BME280;37799;52.390;6.136;2023-04-02T09:39:31;102379.56;;;7.80;100.00
37202;BME280;37799;52.390;6.136;2023-04-02T09:41:57;102388.16;;;7.80;100.00
37202;BME280;37799;52.390;6.136;2023-04-02T09:44:27;102392.81;;;7.31;100.00
37202;BME280;37799;52.390;6.136;2023-04-02T09:47:00;102379.34;;;7.55;100.00
37202;BME280;37799;52.390;6.136;2023-04-02T09:49:33;102387.56;;;8.06;99.80
37202;BME280;37799;52.390;6.136;2023-04-02T09:52:25;102389.72;;;8.51;100.00
37202;BME280;37799;52.390;6.136;2023-04-02T09:55:23;102383.03;;;8.85;92.84
37202;BME280;37799;52.390;6.136;2023-04-02T09:58:15;102393.34;;;8.83;93.41
37202;BME280;37799;52.390;6.136;2023-04-02T10:00:51;102408.81;;;8.73;93.77
37202;BME280;37799;52.390;6.136;2023-04-02T10:03:25;102399.28;;;8.69;99.17
37202;BME280;37799;52.390;6.136;2023-04-02T10:06:12;102406.25;;;8.79;100.00
37202;BME280;37799;52.390;6.136;2023-04-02T10:08:40;102417.53;;;8.92;94.58
37202;BME280;37799;52.390;6.136;2023-04-02T10:11:10;102422.63;;;8.84;93.20
37202;BME280;37799;52.390;6.136;2023-04-02T10:16:48;102437.16;;;8.68;92.08
37202;BME280;37799;52.390;6.136;2023-04-02T10:19:26;102426.00;;;8.72;92.52
37202;BME280;37799;52.390;6.136;2023-04-02T10:21:54;102430.19;;;8.58;91.82
37202;BME280;37799;52.390;6.136;2023-04-02T10:24:20;102430.47;;;8.96;94.35
37202;BME280;37799;52.390;6.136;2023-04-02T10:26:51;102438.47;;;9.40;89.47
37202;BME280;37799;52.390;6.136;2023-04-02T10:32:08;102441.28;;;10.17;92.02
37202;BME280;37799;52.390;6.136;2023-04-02T10:34:49;102433.50;;;10.14;86.94
37202;BME280;37799;52.390;6.136;2023-04-02T10:40:27;102437.88;;;10.41;85.03
37202;BME280;37799;52.390;6.136;2023-04-02T10:45:53;102459.47;;;10.69;81.66
37202;BME280;37799;52.390;6.136;2023-04-02T10:48:50;102467.19;;;10.18;83.11
37202;BME280;37799;52.390;6.136;2023-04-02T10:54:19;102473.25;;;10.90;83.18
37202;BME280;37799;52.390;6.136;2023-04-02T10:56:49;102476.69;;;11.00;80.18
37202;BME280;37799;52.390;6.136;2023-04-02T10:59:21;102476.69;;;11.06;79.02
37202;BME280;37799;52.390;6.136;2023-04-02T11:01:50;102480.13;;;11.20;81.87
37202;BME280;37799;52.390;6.136;2023-04-02T11:04:25;102479.19;;;11.49;82.83
37202;BME280;37799;52.390;6.136;2023-04-02T11:07:02;102488.59;;;11.85;78.54
37202;BME280;37799;52.390;6.136;2023-04-02T11:09:33;102479.88;;;11.92;78.02
37202;BME280;37799;52.390;6.136;2023-04-02T11:12:04;102480.81;;;11.74;74.51
37202;BME280;37799;52.390;6.136;2023-04-02T11:14:31;102492.97;;;11.60;75.50
37202;BME280;37799;52.390;6.136;2023-04-02T11:16:59;102491.19;;;11.68;80.66
37202;BME280;37799;52.390;6.136;2023-04-02T11:19:30;102506.91;;;11.24;75.93
37202;BME280;37799;52.390;6.136;2023-04-02T11:22:10;102506.94;;;11.06;77.33
37202;BME280;37799;52.390;6.136;2023-04-02T11:24:43;102501.75;;;11.06;77.45
37202;BME280;37799;52.390;6.136;2023-04-02T11:32:43;102502.44;;;11.76;83.15
37202;BME280;37799;52.390;6.136;2023-04-02T11:38:46;102512.81;;;11.79;81.26
37202;BME280;37799;52.390;6.136;2023-04-02T11:40:50;102518.88;;;11.72;72.75
37202;BME280;37799;52.390;6.136;2023-04-02T11:46:02;102526.69;;;11.66;78.80
37202;BME280;37799;52.390;6.136;2023-04-02T11:48:33;102511.69;;;12.29;80.09
37202;BME280;37799;52.390;6.136;2023-04-02T11:53:47;102511.00;;;11.97;74.02
37202;BME280;37799;52.390;6.136;2023-04-02T11:56:46;102519.66;;;11.97;71.94
37202;BME280;37799;52.390;6.136;2023-04-02T12:07:24;102519.59;;;12.14;77.43
37202;BME280;37799;52.390;6.136;2023-04-02T12:10:15;102531.81;;;11.78;74.25
37202;BME280;37799;52.390;6.136;2023-04-02T12:12:41;102524.84;;;11.99;70.33
37202;BME280;37799;52.390;6.136;2023-04-02T12:15:45;102543.09;;;11.67;72.76
37202;BME280;37799;52.390;6.136;2023-04-02T12:18:14;102530.88;;;12.04;71.78
37202;BME280;37799;52.390;6.136;2023-04-02T12:20:40;102540.38;;;12.11;72.86
37202;BME280;37799;52.390;6.136;2023-04-02T12:23:17;102534.47;;;11.59;72.16
37202;BME280;37799;52.390;6.136;2023-04-02T12:25:45;102531.00;;;11.69;81.87
37202;BME280;37799;52.390;6.136;2023-04-02T12:28:17;102547.41;;;11.69;76.37
37202;BME280;37799;52.390;6.136;2023-04-02T12:30:45;102540.50;;;11.74;74.80
37202;BME280;37799;52.390;6.136;2023-04-02T12:35:54;102542.09;;;12.09;81.86
37202;BME280;37799;52.390;6.136;2023-04-02T12:38:30;102556.03;;;11.90;79.52
37202;BME280;37799;52.390;6.136;2023-04-02T12:41:05;102557.78;;;11.91;81.44
37202;BME280;37799;52.390;6.136;2023-04-02T12:43:33;102550.69;;;12.26;79.69
37202;BME280;37799;52.390;6.136;2023-04-02T12:46:01;102556.84;;;12.04;76.99
37202;BME280;37799;52.390;6.136;2023-04-02T12:48:28;102563.75;;;12.08;82.50
37202;BME280;37799;52.390;6.136;2023-04-02T12:50:55;102568.19;;;11.75;75.20
37202;BME280;37799;52.390;6.136;2023-04-02T12:53:24;102567.31;;;11.69;79.21
37202;BME280;37799;52.390;6.136;2023-04-02T12:55:52;102561.28;;;11.65;82.24
37202;BME280;37799;52.390;6.136;2023-04-02T12:58:26;102563.06;;;11.39;76.51
37202;BME280;37799;52.390;6.136;2023-04-02T13:00:51;102567.41;;;11.25;81.12
37202;BME280;37799;52.390;6.136;2023-04-02T13:03:19;102562.22;;;11.26;80.52
37202;BME280;37799;52.390;6.136;2023-04-02T13:05:54;102566.53;;;11.47;79.09
37202;BME280;37799;52.390;6.136;2023-04-02T13:08:26;102567.41;;;11.35;83.91
37202;BME280;37799;52.390;6.136;2023-04-02T13:10:55;102575.16;;;11.49;78.31
37202;BME280;37799;52.390;6.136;2023-04-02T13:13:34;102582.97;;;11.47;79.58
37202;BME280;37799;52.390;6.136;2023-04-02T13:18:29;102583.00;;;11.20;73.71
37202;BME280;37799;52.390;6.136;2023-04-02T13:23:32;102573.47;;;11.27;78.75
37202;BME280;37799;52.390;6.136;2023-04-02T13:26:10;102575.19;;;11.34;81.07
37202;BME280;37799;52.390;6.136;2023-04-02T13:28:39;102576.88;;;11.59;77.93
37202;BME280;37799;52.390;6.136;2023-04-02T13:31:04;102589.88;;;11.29;79.03
37202;BME280;37799;52.390;6.136;2023-04-02T13:33:30;102589.88;;;11.29;77.05
37202;BME280;37799;52.390;6.136;2023-04-02T13:35:55;102589.00;;;11.45;74.97
37202;BME280;37799;52.390;6.136;2023-04-02T13:38:21;102588.13;;;11.52;71.71
37202;BME280;37799;52.390;6.136;2023-04-02T13:40:46;102582.06;;;11.56;73.87
37202;BME280;37799;52.390;6.136;2023-04-02T13:43:17;102575.16;;;11.52;70.89
37202;BME280;37799;52.390;6.136;2023-04-02T13:45:48;102572.53;;;11.58;73.36
37202;BME280;37799;52.390;6.136;2023-04-02T13:48:15;102566.50;;;11.55;75.20
37202;BME280;37799;52.390;6.136;2023-04-02T13:50:42;102575.97;;;11.68;77.17
37202;BME280;37799;52.390;6.136;2023-04-02T13:53:18;102577.66;;;11.93;76.81
37202;BME280;37799;52.390;6.136;2023-04-02T13:55:47;102577.69;;;11.76;72.70
37202;BME280;37799;52.390;6.136;2023-04-02T13:58:13;102585.47;;;11.69;74.11
37202;BME280;37799;52.390;6.136;2023-04-02T14:00:38;102586.34;;;11.77;75.75
37202;BME280;37799;52.390;6.136;2023-04-02T14:03:11;102580.31;;;11.67;72.58
37202;BME280;37799;52.390;6.136;2023-04-02T14:05:53;102578.56;;;11.69;73.50
37202;BME280;37799;52.390;6.136;2023-04-02T14:08:50;102582.94;;;11.53;75.54
37202;BME280;37799;52.390;6.136;2023-04-02T14:22:16;102590.75;;;11.31;80.29
37202;BME280;37799;52.390;6.136;2023-04-02T14:25:09;102588.16;;;11.25;86.61
37202;BME280;37799;52.390;6.136;2023-04-02T14:36:15;102595.00;;;10.45;85.71
37202;BME280;37799;52.390;6.136;2023-04-02T14:38:53;102599.28;;;10.32;85.59
37202;BME280;37799;52.390;6.136;2023-04-02T14:41:39;102595.75;;;10.16;87.89
37202;BME280;37799;52.390;6.136;2023-04-02T14:44:10;102606.94;;;10.11;90.40
37202;BME280;37799;52.390;6.136;2023-04-02T14:46:37;102605.28;;;10.25;90.43
37202;BME280;37799;52.390;6.136;2023-04-02T14:49:14;102609.59;;;10.23;89.77
37202;BME280;37799;52.390;6.136;2023-04-02T14:51:48;102615.69;;;10.31;85.85
37202;BME280;37799;52.390;6.136;2023-04-02T14:54:29;102601.88;;;10.37;86.69
37202;BME280;37799;52.390;6.136;2023-04-02T14:56:59;102620.78;;;10.16;85.06
37202;BME280;37799;52.390;6.136;2023-04-02T15:02:17;102617.13;;;9.79;84.01
37202;BME280;37799;52.390;6.136;2023-04-02T15:04:51;102615.47;;;9.94;92.75
37202;BME280;37799;52.390;6.136;2023-04-02T15:07:21;102617.22;;;10.00;92.69
37202;BME280;37799;52.390;6.136;2023-04-02T15:09:53;102613.94;;;10.33;95.19
37202;BME280;37799;52.390;6.136;2023-04-02T15:12:25;102615.72;;;10.49;93.20
37202;BME280;37799;52.390;6.136;2023-04-02T15:15:01;102615.75;;;10.58;86.30
37202;BME280;37799;52.390;6.136;2023-04-02T15:17:28;102615.69;;;10.31;89.81
37202;BME280;37799;52.390;6.136;2023-04-02T15:20:05;102617.38;;;10.23;94.69
37202;BME280;37799;52.390;6.136;2023-04-02T15:25:28;102632.16;;;10.63;88.28
37202;BME280;37799;52.390;6.136;2023-04-02T15:28:11;102631.22;;;10.36;85.72
37202;BME280;37799;52.390;6.136;2023-04-02T15:30:44;102628.72;;;10.55;90.36
37202;BME280;37799;52.390;6.136;2023-04-02T15:38:37;102622.66;;;10.66;93.92
37202;BME280;37799;52.390;6.136;2023-04-02T15:41:14;102622.75;;;10.95;93.30
37202;BME280;37799;52.390;6.136;2023-04-02T15:44:05;102628.75;;;10.86;90.72
37202;BME280;37799;52.390;6.136;2023-04-02T15:49:34;102639.97;;;10.73;85.60
37202;BME280;37799;52.390;6.136;2023-04-02T15:54:45;102639.91;;;10.53;91.47
37202;BME280;37799;52.390;6.136;2023-04-02T16:00:28;102642.56;;;10.73;92.43
37202;BME280;37799;52.390;6.136;2023-04-02T16:11:12;102665.00;;;10.72;86.49